Time;durP1;ratioP1;P1;durP2;ratioP2;P2;SDS_P1;SDS_P2;PMS_P1;PMS_P2;Temp;Humidity;BMP_temperature;BMP_pressure;BME280_temperature;BME280_humidity;BME280_pressure;Samples;Min_cycle;Max_cycle;Signal;HPM_P1;HPM_P2
2022/12/09 00:01:45;;;;;;;33.40;16.42;;;3.40;99.90;;;;;;6092131;23;20002;-90
2022/12/09 00:04:10;;;;;;;28.25;15.70;;;3.50;99.90;;;;;;6091913;23;20034;-89
2022/12/09 00:06:36;;;;;;;30.48;17.08;;;3.40;99.90;;;;;;6067755;23;20054;-88
2022/12/09 00:09:02;;;;;;;28.08;15.75;;;3.30;99.90;;;;;;6092240;23;20062;-90
2022/12/09 00:11:28;;;;;;;25.02;15.07;;;3.40;99.90;;;;;;6092147;23;20221;-90
2022/12/09 00:13:55;;;;;;;24.90;15.23;;;3.40;99.90;;;;;;6092042;23;20053;-89
2022/12/09 00:16:22;;;;;;;29.00;14.57;;;3.40;99.90;;;;;;6092099;23;20002;-93
2022/12/09 00:18:48;;;;;;;24.63;14.35;;;3.40;99.90;;;;;;6091599;23;20069;-90
2022/12/09 00:21:20;;;;;;;27.98;15.10;;;3.40;99.90;;;;;;6090911;23;20009;-88
2022/12/09 00:23:46;;;;;;;29.48;16.00;;;3.30;99.90;;;;;;6092380;23;20011;-90
2022/12/09 00:26:13;;;;;;;26.55;14.63;;;3.20;99.90;;;;;;6094028;23;20022;-90
2022/12/09 00:28:39;;;;;;;25.10;14.80;;;3.20;99.90;;;;;;6095011;23;20431;-91
2022/12/09 00:31:05;;;;;;;28.60;14.65;;;3.10;99.90;;;;;;6094513;23;20335;-88
2022/12/09 00:33:32;;;;;;;25.73;14.52;;;3.20;99.90;;;;;;6093613;23;20011;-87
2022/12/09 00:36:04;;;;;;;28.40;14.60;;;3.10;99.90;;;;;;6093912;23;20002;-90
2022/12/09 00:38:30;;;;;;;25.40;14.27;;;3.10;99.90;;;;;;6093856;23;20319;-89
2022/12/09 00:40:55;;;;;;;25.60;13.85;;;3.00;99.90;;;;;;6093656;23;19999;-86
2022/12/09 00:43:21;;;;;;;25.67;14.05;;;3.00;99.90;;;;;;6093656;23;20014;-90
2022/12/09 00:45:47;;;;;;;24.52;13.68;;;3.10;99.90;;;;;;6093642;23;20406;-87
2022/12/09 00:48:12;;;;;;;21.40;12.90;;;3.10;99.90;;;;;;6093898;23;20017;-89
2022/12/09 00:50:38;;;;;;;25.17;13.88;;;3.10;99.90;;;;;;6094874;23;20069;-89
2022/12/09 00:53:03;;;;;;;21.10;12.73;;;3.20;99.90;;;;;;6093798;23;20003;-89
2022/12/09 00:55:29;;;;;;;21.23;12.60;;;3.20;99.90;;;;;;6093796;23;20002;-90
2022/12/09 00:57:54;;;;;;;23.65;13.82;;;3.30;99.90;;;;;;6067996;23;20065;-88
2022/12/09 01:00:20;;;;;;;26.38;12.75;;;3.10;99.90;;;;;;6067951;23;20014;-90
2022/12/09 01:02:46;;;;;;;21.60;12.68;;;3.10;99.90;;;;;;6093758;23;20507;-89
2022/12/09 01:05:12;;;;;;;22.45;12.52;;;3.10;99.90;;;;;;6068878;23;20013;-87
2022/12/09 01:07:37;;;;;;;21.40;11.95;;;3.10;99.90;;;;;;6094620;23;20048;-90
2022/12/09 01:10:04;;;;;;;21.38;11.82;;;3.30;99.90;;;;;;6093272;23;20006;-92
2022/12/09 01:12:31;;;;;;;20.20;12.10;;;3.20;99.90;;;;;;6093407;23;20041;-86
2022/12/09 01:14:57;;;;;;;19.80;11.23;;;3.30;99.90;;;;;;6093353;23;20003;-90
2022/12/09 01:17:22;;;;;;;22.35;12.65;;;3.00;99.90;;;;;;6067774;23;20451;-88
2022/12/09 01:19:48;;;;;;;22.17;11.68;;;3.10;99.90;;;;;;6093525;23;19999;-89
2022/12/09 01:22:14;;;;;;;18.33;11.10;;;3.10;99.90;;;;;;6093940;23;20011;-88
2022/12/09 01:24:39;;;;;;;20.42;11.63;;;3.10;99.90;;;;;;6074870;23;20006;-88
2022/12/09 01:27:05;;;;;;;19.30;10.95;;;3.20;99.90;;;;;;6108737;23;19999;-88
2022/12/09 01:29:30;;;;;;;18.80;10.95;;;3.10;99.90;;;;;;6110924;23;20010;-87
2022/12/09 01:31:56;;;;;;;24.13;12.00;;;3.30;99.90;;;;;;6108311;23;20328;-88
2022/12/09 01:34:22;;;;;;;18.33;11.27;;;3.10;99.90;;;;;;6098644;23;20147;-91
2022/12/09 01:36:47;;;;;;;19.75;11.18;;;3.00;99.90;;;;;;6068393;23;20011;-91
2022/12/09 01:39:13;;;;;;;18.27;11.35;;;2.90;99.90;;;;;;6068495;23;20006;-88
2022/12/09 01:41:39;;;;;;;20.20;12.00;;;2.80;99.90;;;;;;6094754;23;20379;-91
2022/12/09 01:44:25;;;;;;;19.25;11.77;;;2.80;99.90;;;;;;6068016;23;20101;-92
2022/12/09 01:46:59;;;;;;;21.75;11.52;;;2.80;99.90;;;;;;6068424;23;20029;-91
2022/12/09 01:49:35;;;;;;;18.65;10.95;;;2.90;99.90;;;;;;6068225;23;20010;-87
2022/12/09 01:52:12;;;;;;;18.45;11.30;;;2.90;99.90;;;;;;6091851;23;20002;-91
2022/12/09 01:54:40;;;;;;;24.58;11.43;;;2.80;99.90;;;;;;6067654;23;20002;-91
2022/12/09 01:57:06;;;;;;;23.95;12.43;;;2.80;99.90;;;;;;6093602;23;20070;-91
2022/12/09 01:59:33;;;;;;;20.65;12.07;;;2.90;99.90;;;;;;6093287;23;20373;-92
2022/12/09 02:02:01;;;;;;;20.67;11.60;;;2.90;99.90;;;;;;6093348;23;20012;-91
2022/12/09 02:04:30;;;;;;;19.87;11.30;;;2.80;99.90;;;;;;6093071;23;20025;-91
2022/12/09 02:06:58;;;;;;;21.25;12.15;;;2.90;99.90;;;;;;6092706;23;20009;-89
2022/12/09 02:09:24;;;;;;;18.45;11.20;;;2.70;99.90;;;;;;6091176;23;20007;-87
2022/12/09 02:12:28;;;;;;;22.63;12.10;;;2.80;99.90;;;;;;6092745;23;20033;-90
2022/12/09 02:15:08;;;;;;;22.92;12.27;;;2.80;99.90;;;;;;6062574;23;20006;-90
2022/12/09 02:17:49;;;;;;;22.80;11.88;;;2.80;99.90;;;;;;6092765;23;20588;-93
2022/12/09 02:20:24;;;;;;;24.70;12.82;;;2.80;99.90;;;;;;6093540;23;20069;-87
2022/12/09 02:23:15;;;;;;;25.05;13.68;;;2.70;99.90;;;;;;6067450;23;20037;-89
2022/12/09 02:25:48;;;;;;;22.70;12.63;;;2.50;99.90;;;;;;6092274;23;20443;-90
2022/12/09 02:28:25;;;;;;;19.77;11.52;;;2.50;99.90;;;;;;6094235;23;20013;-91
2022/12/09 02:31:03;;;;;;;20.92;11.32;;;2.50;99.90;;;;;;6092908;23;20002;-89
2022/12/09 02:34:06;;;;;;;19.58;11.65;;;2.40;99.90;;;;;;6066880;23;20002;-93
2022/12/09 02:36:54;;;;;;;24.48;12.98;;;2.50;99.90;;;;;;6037570;23;20006;-91
2022/12/09 02:39:34;;;;;;;21.15;12.02;;;2.50;99.90;;;;;;6092776;23;20384;-87
2022/12/09 02:42:03;;;;;;;21.13;12.95;;;2.50;99.90;;;;;;6092894;23;20003;-92
2022/12/09 02:44:29;;;;;;;23.58;14.00;;;2.50;99.90;;;;;;6092942;23;20470;-91
2022/12/09 02:46:56;;;;;;;24.95;14.60;;;2.30;99.90;;;;;;6093199;23;20077;-90
2022/12/09 02:49:24;;;;;;;23.83;13.98;;;2.30;99.90;;;;;;6091468;23;20392;-92
2022/12/09 02:51:50;;;;;;;26.02;14.25;;;2.30;99.90;;;;;;6093036;23;20025;-87
2022/12/09 02:54:17;;;;;;;21.75;13.70;;;2.30;99.90;;;;;;6068293;23;20006;-91
2022/12/09 02:56:51;;;;;;;23.80;13.38;;;2.30;99.90;;;;;;6093972;23;20064;-87
2022/12/09 02:59:17;;;;;;;22.23;12.93;;;2.20;99.90;;;;;;6092671;23;20014;-88
2022/12/09 03:02:12;;;;;;;24.50;13.70;;;2.30;99.90;;;;;;6094186;23;20421;-89
2022/12/09 03:04:41;;;;;;;26.92;12.52;;;2.30;99.90;;;;;;6093029;23;20313;-91
2022/12/09 03:07:32;;;;;;;23.80;12.75;;;2.30;99.90;;;;;;6092582;23;20010;-90
2022/12/09 03:10:30;;;;;;;26.20;13.65;;;2.30;99.90;;;;;;6092716;23;20013;-89
2022/12/09 03:13:35;;;;;;;22.55;12.90;;;2.30;99.90;;;;;;6064366;23;20010;-91
2022/12/09 03:16:08;;;;;;;24.08;13.52;;;2.30;99.90;;;;;;6032836;23;20090;-90
2022/12/09 03:18:36;;;;;;;22.83;13.10;;;2.30;99.90;;;;;;6082695;23;20101;-92
2022/12/09 03:21:04;;;;;;;25.70;15.30;;;2.30;99.90;;;;;;6092438;23;20029;-91
2022/12/09 03:23:31;;;;;;;28.33;15.15;;;2.20;99.90;;;;;;6066909;23;20018;-89
2022/12/09 03:25:59;;;;;;;26.70;14.02;;;2.30;99.90;;;;;;6090999;23;20003;-92
2022/12/09 03:28:39;;;;;;;26.52;15.27;;;2.20;99.90;;;;;;6066806;23;20006;-91
2022/12/09 03:31:09;;;;;;;27.83;15.20;;;2.30;99.90;;;;;;6092537;23;20005;-89
2022/12/09 03:33:34;;;;;;;24.88;14.35;;;2.30;99.90;;;;;;6092317;23;20002;-93
2022/12/09 03:36:04;;;;;;;25.55;14.30;;;2.30;99.90;;;;;;6067037;23;20018;-89
2022/12/09 03:38:35;;;;;;;25.92;15.20;;;2.20;99.90;;;;;;6092461;23;20006;-90
2022/12/09 03:41:24;;;;;;;25.83;14.68;;;2.20;99.90;;;;;;6092318;23;20029;-92
2022/12/09 03:43:55;;;;;;;26.70;14.80;;;2.20;99.90;;;;;;6091400;23;20021;-87
2022/12/09 03:46:21;;;;;;;28.02;15.00;;;2.10;99.90;;;;;;6092361;23;20077;-87
2022/12/09 03:48:47;;;;;;;27.23;15.30;;;2.10;99.90;;;;;;6093132;23;20006;-90
2022/12/09 03:52:00;;;;;;;25.38;13.65;;;2.10;99.90;;;;;;6092175;23;20006;-88
2022/12/09 03:54:39;;;;;;;26.15;13.88;;;2.10;99.90;;;;;;6058863;23;20013;-88
2022/12/09 03:57:05;;;;;;;26.95;14.05;;;2.00;99.90;;;;;;6092300;23;20321;-89
2022/12/09 03:59:33;;;;;;;23.17;14.00;;;2.00;99.90;;;;;;6067816;23;20026;-88
2022/12/09 04:01:59;;;;;;;24.38;13.25;;;2.00;99.90;;;;;;6094941;23;20007;-88
2022/12/09 04:04:26;;;;;;;27.75;15.10;;;2.00;99.90;;;;;;6103341;23;20021;-85
2022/12/09 04:06:53;;;;;;;29.25;15.30;;;2.00;99.90;;;;;;6109931;23;19999;-87
2022/12/09 04:09:19;;;;;;;27.45;14.80;;;2.00;99.90;;;;;;6113633;23;20009;-87
2022/12/09 04:11:45;;;;;;;28.33;15.32;;;2.20;99.90;;;;;;6109747;23;20002;-89
2022/12/09 04:14:10;;;;;;;28.10;14.35;;;2.20;99.90;;;;;;6097961;23;20029;-89
2022/12/09 04:16:36;;;;;;;25.92;14.98;;;2.20;99.90;;;;;;6071783;23;20089;-90
2022/12/09 04:19:02;;;;;;;25.90;15.05;;;2.20;99.90;;;;;;6094680;23;20066;-89
2022/12/09 04:21:27;;;;;;;26.83;14.00;;;2.10;99.90;;;;;;6094546;23;20071;-89
2022/12/09 04:23:53;;;;;;;22.85;13.35;;;2.10;99.90;;;;;;6094522;23;20018;-90
2022/12/09 04:26:21;;;;;;;27.73;15.15;;;2.10;99.90;;;;;;6095348;23;20002;-92
2022/12/09 04:28:48;;;;;;;25.83;14.55;;;2.20;99.90;;;;;;6094067;23;20081;-89
2022/12/09 04:31:15;;;;;;;28.13;15.38;;;2.20;99.90;;;;;;6068066;23;20106;-88
2022/12/09 04:33:41;;;;;;;29.73;16.15;;;2.20;99.90;;;;;;6093714;23;20006;-89
2022/12/09 04:36:11;;;;;;;24.33;14.68;;;2.20;99.90;;;;;;6092456;23;20086;-88
2022/12/09 04:38:37;;;;;;;26.15;15.10;;;2.30;99.90;;;;;;6093682;23;20005;-89
2022/12/09 04:41:03;;;;;;;27.25;15.32;;;2.30;99.90;;;;;;6093706;23;20010;-87
2022/12/09 04:43:29;;;;;;;29.10;15.50;;;2.30;99.90;;;;;;6093297;23;20093;-89
2022/12/09 04:46:03;;;;;;;31.75;15.90;;;2.30;99.90;;;;;;6093787;23;20057;-88
2022/12/09 04:48:29;;;;;;;28.13;14.93;;;2.30;99.90;;;;;;6093691;23;20010;-90
2022/12/09 04:50:55;;;;;;;26.88;14.27;;;2.20;99.90;;;;;;6068212;23;20006;-88
2022/12/09 04:53:21;;;;;;;29.20;15.35;;;2.40;99.90;;;;;;6095317;23;20048;-88
2022/12/09 04:55:47;;;;;;;24.15;14.68;;;2.30;99.90;;;;;;6093067;23;20006;-88
2022/12/09 04:58:13;;;;;;;26.23;14.73;;;2.30;99.90;;;;;;6094597;23;20220;-89
2022/12/09 05:00:38;;;;;;;26.38;15.48;;;2.20;99.90;;;;;;6094047;23;20033;-90
2022/12/09 05:03:04;;;;;;;28.02;15.68;;;2.20;99.90;;;;;;6093406;23;20066;-89
2022/12/09 05:05:29;;;;;;;25.63;14.38;;;2.20;99.90;;;;;;6093436;23;20081;-90
2022/12/09 05:07:55;;;;;;;27.20;14.93;;;2.20;99.90;;;;;;6067991;23;20515;-88
2022/12/09 05:10:21;;;;;;;30.25;16.02;;;2.20;99.90;;;;;;6093782;23;20010;-89
2022/12/09 05:12:47;;;;;;;28.58;15.48;;;2.20;99.90;;;;;;6093280;23;20003;-88
2022/12/09 05:15:12;;;;;;;28.20;15.55;;;2.30;99.90;;;;;;6093409;23;20034;-88
2022/12/09 05:17:38;;;;;;;32.72;16.00;;;2.20;99.90;;;;;;6093012;23;20015;-88
2022/12/09 05:20:05;;;;;;;29.15;16.02;;;2.40;99.90;;;;;;6093214;23;20002;-89
2022/12/09 05:22:30;;;;;;;30.75;15.95;;;2.20;99.90;;;;;;6094231;23;20021;-89
2022/12/09 05:24:56;;;;;;;32.50;16.23;;;2.20;99.90;;;;;;6091503;23;20077;-88
2022/12/09 05:27:23;;;;;;;30.50;16.10;;;2.20;99.90;;;;;;6064602;23;20033;-89
2022/12/09 05:29:48;;;;;;;27.20;15.43;;;2.70;99.90;;;;;;6091499;23;20002;-92
2022/12/09 05:32:14;;;;;;;28.17;15.48;;;2.20;99.90;;;;;;6092865;23;20002;-88
2022/12/09 05:34:39;;;;;;;30.35;17.42;;;2.10;99.90;;;;;;6092334;23;20092;-87
2022/12/09 05:37:05;;;;;;;32.55;16.63;;;2.10;99.90;;;;;;6066723;23;20053;-92
2022/12/09 05:39:31;;;;;;;32.92;16.50;;;2.00;99.90;;;;;;6092866;23;20002;-89
2022/12/09 05:41:56;;;;;;;26.40;15.55;;;2.00;99.90;;;;;;6066780;23;20348;-87
2022/12/09 05:44:22;;;;;;;29.58;16.00;;;2.00;99.90;;;;;;6067995;23;20014;-88
2022/12/09 05:46:48;;;;;;;30.30;16.95;;;2.00;99.90;;;;;;6092274;23;19998;-86
2022/12/09 05:49:13;;;;;;;35.20;17.60;;;2.00;99.90;;;;;;6092496;23;20459;-87
2022/12/09 05:51:39;;;;;;;30.67;16.63;;;1.90;99.90;;;;;;6066843;23;20388;-90
2022/12/09 05:54:05;;;;;;;31.65;17.17;;;1.80;99.90;;;;;;6092899;23;20013;-87
2022/12/09 05:56:31;;;;;;;30.02;16.80;;;1.80;99.90;;;;;;6092791;23;19999;-88
2022/12/09 05:58:57;;;;;;;33.03;17.13;;;1.60;99.90;;;;;;6092820;23;20006;-87
2022/12/09 06:01:24;;;;;;;33.63;16.27;;;1.50;99.90;;;;;;6093578;23;20446;-88
2022/12/09 06:03:51;;;;;;;30.80;17.08;;;1.40;99.90;;;;;;6092552;23;20014;-89
2022/12/09 06:06:19;;;;;;;27.33;15.88;;;1.40;99.90;;;;;;6092410;23;20041;-90
2022/12/09 06:08:45;;;;;;;31.73;16.47;;;1.40;99.90;;;;;;6067269;23;20010;-88
2022/12/09 06:11:14;;;;;;;34.85;16.83;;;1.20;99.90;;;;;;6092545;23;20007;-88
2022/12/09 06:13:39;;;;;;;32.92;15.90;;;1.20;99.90;;;;;;6092100;23;20002;-86
2022/12/09 06:16:07;;;;;;;29.92;15.63;;;1.10;99.90;;;;;;6093252;23;20041;-87
2022/12/09 06:18:33;;;;;;;30.83;16.77;;;1.10;99.90;;;;;;6086038;23;20019;-88
2022/12/09 06:21:03;;;;;;;31.23;17.02;;;1.40;99.90;;;;;;6038032;23;20014;-87
2022/12/09 06:23:29;;;;;;;31.75;15.90;;;1.10;99.90;;;;;;6063231;23;20011;-87
2022/12/09 06:25:55;;;;;;;30.25;16.02;;;1.10;99.90;;;;;;6064891;23;20122;-88
2022/12/09 06:28:20;;;;;;;30.65;16.75;;;1.10;99.90;;;;;;6063703;23;20010;-87
2022/12/09 06:30:46;;;;;;;30.05;15.68;;;1.10;99.90;;;;;;6039148;23;20010;-89
2022/12/09 06:33:11;;;;;;;27.90;15.60;;;1.10;99.90;;;;;;6063289;23;20002;-90
2022/12/09 06:35:37;;;;;;;32.70;16.77;;;1.00;99.90;;;;;;6063705;23;20003;-87
2022/12/09 06:38:02;;;;;;;30.35;16.83;;;1.00;99.90;;;;;;6062044;23;20014;-85
2022/12/09 06:40:28;;;;;;;32.97;17.17;;;1.30;99.90;;;;;;6064152;23;20002;-87
2022/12/09 06:42:54;;;;;;;35.05;17.27;;;1.30;99.90;;;;;;6065448;23;20013;-87
2022/12/09 06:45:20;;;;;;;32.45;16.88;;;0.80;99.90;;;;;;6066096;23;20031;-86
2022/12/09 06:47:46;;;;;;;28.92;15.82;;;0.80;99.90;;;;;;6072870;23;20003;-88
2022/12/09 06:50:12;;;;;;;36.35;18.17;;;1.00;99.90;;;;;;6070870;23;20006;-87
2022/12/09 06:52:39;;;;;;;31.73;16.40;;;0.70;99.90;;;;;;6073984;23;20057;-88
2022/12/09 06:55:06;;;;;;;31.67;16.92;;;0.70;99.90;;;;;;6066129;23;20076;-90
2022/12/09 06:57:31;;;;;;;35.97;16.45;;;0.70;99.90;;;;;;6061678;23;20006;-89
2022/12/09 06:59:57;;;;;;;30.90;17.10;;;0.50;99.90;;;;;;6039767;23;20045;-87
2022/12/09 07:02:23;;;;;;;35.92;17.08;;;0.60;99.90;;;;;;6036805;23;20014;-90
2022/12/09 07:04:53;;;;;;;34.05;17.42;;;1.60;99.90;;;;;;6037406;23;20177;-87
2022/12/09 07:07:19;;;;;;;34.22;17.20;;;0.60;99.90;;;;;;6061181;23;20236;-88
2022/12/09 07:09:45;;;;;;;31.58;17.85;;;1.30;99.90;;;;;;6063398;23;20081;-91
2022/12/09 07:12:11;;;;;;;27.48;15.85;;;1.40;99.90;;;;;;6063120;23;20007;-88
2022/12/09 07:14:36;;;;;;;33.55;17.50;;;1.60;99.90;;;;;;6062014;23;20010;-90
2022/12/09 07:17:03;;;;;;;27.45;15.35;;;1.50;99.90;;;;;;6068557;23;20011;-88
2022/12/09 07:19:30;;;;;;;29.00;16.38;;;0.90;99.90;;;;;;6092115;23;19998;-88
2022/12/09 07:21:56;;;;;;;27.42;16.17;;;0.90;99.90;;;;;;6092346;23;20009;-87
2022/12/09 07:24:23;;;;;;;30.48;16.25;;;1.10;99.90;;;;;;6090722;23;20518;-88
2022/12/09 07:26:49;;;;;;;33.90;17.00;;;0.90;99.90;;;;;;6065870;23;20013;-90
2022/12/09 07:29:15;;;;;;;29.95;16.38;;;1.40;99.90;;;;;;6065523;23;20006;-87
2022/12/09 07:31:41;;;;;;;35.35;17.38;;;1.80;99.90;;;;;;6090375;23;19998;-89
2022/12/09 07:34:10;;;;;;;27.33;16.58;;;1.20;99.90;;;;;;6089958;23;20002;-89
2022/12/09 07:36:36;;;;;;;;;;;1.10;99.90;;;;;;6092344;23;20026;-91
2022/12/09 07:39:13;;;;;;;31.95;17.63;;;1.50;99.90;;;;;;6091817;23;19996;-88
2022/12/09 07:41:38;;;;;;;34.10;18.45;;;1.20;99.90;;;;;;6089320;23;20007;-88
2022/12/09 07:44:04;;;;;;;28.08;16.58;;;1.20;99.90;;;;;;6091653;23;20062;-89
2022/12/09 07:46:30;;;;;;;33.05;17.63;;;1.40;99.90;;;;;;6067426;23;20388;-90
2022/12/09 07:48:56;;;;;;;33.90;18.25;;;0.90;99.90;;;;;;6091974;23;20002;-91
2022/12/09 07:51:23;;;;;;;27.92;16.08;;;0.90;99.90;;;;;;6091366;23;20350;-89
2022/12/09 07:53:49;;;;;;;30.27;16.35;;;1.20;99.90;;;;;;6091673;23;20006;-88
2022/12/09 07:56:16;;;;;;;29.67;15.95;;;0.90;99.90;;;;;;6090961;23;20428;-88
2022/12/09 07:58:43;;;;;;;32.15;17.00;;;1.10;99.90;;;;;;6090991;23;20131;-88
2022/12/09 08:01:12;;;;;;;28.23;16.13;;;1.80;99.90;;;;;;6091129;23;20466;-89
2022/12/09 08:03:41;;;;;;;28.23;16.75;;;1.00;99.90;;;;;;6090069;23;20553;-87
2022/12/09 08:06:07;;;;;;;29.23;16.63;;;1.00;99.90;;;;;;6065858;23;20476;-89
2022/12/09 08:08:33;;;;;;;30.92;16.80;;;0.90;99.90;;;;;;6090722;23;20013;-87
2022/12/09 08:11:07;;;;;;;27.20;16.00;;;0.80;99.90;;;;;;6067159;23;20089;-90
2022/12/09 08:13:33;;;;;;;34.38;16.35;;;0.70;99.90;;;;;;6090861;23;20002;-89
2022/12/09 08:16:07;;;;;;;38.80;20.65;;;1.20;99.90;;;;;;6066675;23;20049;-87
2022/12/09 08:18:34;;;;;;;48.05;25.00;;;0.70;99.90;;;;;;6090976;23;20014;-87
2022/12/09 08:21:04;;;;;;;44.35;23.58;;;0.70;99.90;;;;;;6092788;23;20451;-86
2022/12/09 08:23:29;;;;;;;41.75;23.15;;;0.70;99.90;;;;;;6091707;23;20018;-87
2022/12/09 08:25:55;;;;;;;57.53;31.45;;;0.70;99.90;;;;;;6090614;23;20002;-91
2022/12/09 08:28:22;;;;;;;74.90;36.58;;;0.60;99.90;;;;;;6090602;23;20007;-88
2022/12/09 08:30:48;;;;;;;49.30;26.70;;;0.70;99.90;;;;;;6091268;23;20081;-86
2022/12/09 08:33:14;;;;;;;37.13;20.77;;;0.70;99.90;;;;;;6091290;23;20035;-86
2022/12/09 08:35:40;;;;;;;48.15;25.27;;;0.70;99.90;;;;;;6091291;23;20009;-88
2022/12/09 08:38:06;;;;;;;36.83;20.48;;;1.10;99.90;;;;;;6091305;23;20045;-88
2022/12/09 08:40:31;;;;;;;36.70;19.38;;;1.10;99.90;;;;;;6066055;23;20014;-86
2022/12/09 08:42:57;;;;;;;30.55;18.55;;;0.80;99.90;;;;;;6091029;23;20432;-87
2022/12/09 08:45:23;;;;;;;33.75;17.80;;;1.50;99.90;;;;;;6091489;23;20002;-88
2022/12/09 08:47:49;;;;;;;33.00;17.42;;;1.60;99.90;;;;;;6093010;23;20002;-92
2022/12/09 08:50:15;;;;;;;29.10;17.15;;;0.80;99.90;;;;;;6092446;23;20320;-88
2022/12/09 08:52:41;;;;;;;38.22;18.98;;;0.70;99.90;;;;;;6092503;23;20009;-86
2022/12/09 08:55:08;;;;;;;30.42;18.10;;;1.10;99.90;;;;;;6066891;23;20062;-88
2022/12/09 08:57:34;;;;;;;37.80;18.25;;;0.80;99.90;;;;;;6093074;23;20030;-86
2022/12/09 09:00:00;;;;;;;30.83;17.60;;;0.90;99.90;;;;;;6094031;23;20002;-87
2022/12/09 09:02:26;;;;;;;33.60;19.60;;;0.90;99.90;;;;;;6090700;23;20017;-88
2022/12/09 09:04:52;;;;;;;45.45;25.73;;;1.60;99.90;;;;;;6067020;23;20034;-90
2022/12/09 09:07:17;;;;;;;44.80;23.33;;;1.70;99.90;;;;;;6067075;23;20009;-90
2022/12/09 09:09:43;;;;;;;38.10;22.85;;;1.40;99.90;;;;;;6092573;23;20141;-89
2022/12/09 09:12:08;;;;;;;34.35;19.20;;;0.90;99.90;;;;;;6092495;23;19998;-88
2022/12/09 09:14:34;;;;;;;40.10;20.20;;;1.10;99.90;;;;;;6067118;23;20011;-88
2022/12/09 09:17:00;;;;;;;38.50;19.85;;;1.00;99.90;;;;;;6068138;23;20021;-89
2022/12/09 09:19:26;;;;;;;33.88;17.60;;;1.10;99.90;;;;;;6092154;23;20002;-87
2022/12/09 09:21:53;;;;;;;36.75;21.05;;;1.20;99.90;;;;;;6066338;23;20011;-89
2022/12/09 09:24:21;;;;;;;37.85;17.55;;;1.00;99.90;;;;;;6091276;23;20458;-90
2022/12/09 09:26:48;;;;;;;35.25;20.13;;;1.10;99.90;;;;;;6105308;23;19998;-87
2022/12/09 09:29:16;;;;;;;31.52;17.85;;;1.20;99.90;;;;;;6113162;23;20022;-88
2022/12/09 09:31:42;;;;;;;32.08;17.13;;;1.20;99.90;;;;;;6103119;23;20010;-86
2022/12/09 09:34:08;;;;;;;36.08;17.85;;;1.20;99.90;;;;;;6069478;23;20010;-87
2022/12/09 09:36:33;;;;;;;37.38;20.40;;;1.70;99.90;;;;;;6093460;23;20003;-87
2022/12/09 09:38:59;;;;;;;35.45;18.83;;;1.40;99.90;;;;;;6093051;23;20065;-87
2022/12/09 09:41:42;;;;;;;33.97;18.55;;;1.40;99.90;;;;;;6091986;23;20014;-88
2022/12/09 09:44:16;;;;;;;36.30;19.00;;;1.30;99.90;;;;;;6092451;23;20014;-88
2022/12/09 09:46:44;;;;;;;40.55;19.20;;;1.60;99.90;;;;;;6092381;23;20006;-86
2022/12/09 09:49:23;;;;;;;30.52;17.95;;;2.20;99.90;;;;;;6090374;23;20435;-86
2022/12/09 09:51:49;;;;;;;30.80;17.85;;;1.50;99.90;;;;;;6091951;23;20003;-89
2022/12/09 09:54:15;;;;;;;37.10;17.88;;;1.50;99.90;;;;;;6091987;23;19999;-87
2022/12/09 09:56:50;;;;;;;31.15;18.75;;;1.70;99.90;;;;;;6065318;23;20010;-87
2022/12/09 09:59:22;;;;;;;39.65;18.60;;;1.60;99.90;;;;;;6091359;23;20005;-87
2022/12/09 10:01:57;;;;;;;28.85;17.13;;;1.70;99.90;;;;;;6090685;23;20343;-90
2022/12/09 10:04:52;;;;;;;32.28;17.00;;;2.50;99.90;;;;;;6089809;23;20021;-88
2022/12/09 10:07:24;;;;;;;30.38;16.65;;;1.70;99.90;;;;;;6063733;23;20339;-88
2022/12/09 10:10:14;;;;;;;38.40;17.58;;;1.70;99.90;;;;;;6092652;23;20073;-88
2022/12/09 10:13:08;;;;;;;32.88;18.02;;;1.80;99.90;;;;;;6089674;23;20002;-88
2022/12/09 10:15:43;;;;;;;29.90;16.83;;;1.90;99.90;;;;;;6091305;23;20038;-92
2022/12/09 10:18:19;;;;;;;29.15;16.38;;;2.00;99.90;;;;;;6091651;23;20089;-90
2022/12/09 10:20:45;;;;;;;30.55;16.95;;;2.20;99.90;;;;;;6091894;23;20002;-90
2022/12/09 10:23:20;;;;;;;29.15;17.45;;;2.50;99.90;;;;;;6068269;23;20033;-93
2022/12/09 10:26:27;;;;;;;32.95;16.83;;;2.20;99.90;;;;;;6066996;23;20034;-91
2022/12/09 10:29:09;;;;;;;26.77;14.85;;;2.30;99.90;;;;;;6084686;23;20018;-91
2022/12/09 10:31:35;;;;;;;28.80;16.83;;;2.30;99.90;;;;;;6090968;23;20010;-90
2022/12/09 10:34:00;;;;;;;26.92;14.30;;;3.30;99.90;;;;;;6066375;23;20138;-90
2022/12/09 10:36:28;;;;;;;25.10;14.88;;;3.20;99.90;;;;;;6065907;23;20014;-89
2022/12/09 10:38:54;;;;;;;28.02;16.30;;;3.40;99.90;;;;;;6089715;23;20010;-90
2022/12/09 10:44:30;;;;;;;29.08;15.85;;;2.70;99.90;;;;;;6091526;23;20029;-89
2022/12/09 10:47:02;;;;;;;28.42;14.38;;;2.70;99.90;;;;;;6091576;23;20002;-90
2022/12/09 10:49:29;;;;;;;27.35;14.98;;;2.80;99.90;;;;;;6065760;23;20030;-90
2022/12/09 10:51:55;;;;;;;23.58;13.80;;;3.30;99.90;;;;;;6092145;23;20038;-89
2022/12/09 10:54:43;;;;;;;23.75;13.35;;;3.00;99.90;;;;;;6091248;23;20006;-90
2022/12/09 10:57:15;;;;;;;20.85;12.93;;;2.90;99.90;;;;;;6093321;23;20010;-89
2022/12/09 10:59:54;;;;;;;21.80;13.10;;;2.80;99.90;;;;;;6091599;23;19998;-89
2022/12/09 11:02:21;;;;;;;22.27;12.85;;;3.20;99.90;;;;;;6089032;23;20079;-89
2022/12/09 11:04:48;;;;;;;19.80;12.13;;;2.80;99.90;;;;;;6091267;23;20015;-89
2022/12/09 11:07:24;;;;;;;24.52;12.05;;;2.90;99.90;;;;;;6091289;23;20003;-91
2022/12/09 11:10:04;;;;;;;19.08;11.77;;;3.30;99.90;;;;;;6065465;23;20006;-90
2022/12/09 11:12:35;;;;;;;20.42;12.30;;;3.10;99.90;;;;;;6090734;23;20025;-90
2022/12/09 11:15:22;;;;;;;20.40;13.07;;;3.00;99.90;;;;;;6065981;23;20037;-89
2022/12/09 11:18:04;;;;;;;19.48;12.35;;;3.10;99.90;;;;;;6065788;23;20094;-88
2022/12/09 11:20:32;;;;;;;19.20;10.68;;;3.10;99.90;;;;;;6065396;23;20052;-88
2022/12/09 11:23:16;;;;;;;17.02;9.98;;;3.20;99.90;;;;;;6091434;23;20010;-89
2022/12/09 11:26:06;;;;;;;15.48;9.38;;;3.20;99.90;;;;;;6090820;23;20010;-88
2022/12/09 11:28:37;;;;;;;21.50;11.40;;;3.50;99.90;;;;;;6090635;23;20423;-86
2022/12/09 11:31:13;;;;;;;19.25;11.77;;;3.00;99.90;;;;;;6091151;23;19998;-87
2022/12/09 11:33:52;;;;;;;18.80;10.65;;;3.10;99.90;;;;;;6091293;23;20010;-89
2022/12/09 11:36:34;;;;;;;16.83;9.80;;;3.10;99.90;;;;;;6091525;23;20002;-90
2022/12/09 11:39:32;;;;;;;19.58;11.07;;;3.10;99.90;;;;;;6089968;23;20317;-89
2022/12/09 11:42:20;;;;;;;15.32;9.65;;;3.10;99.90;;;;;;6065237;23;20006;-89
2022/12/09 11:44:59;;;;;;;16.52;10.45;;;3.10;99.90;;;;;;6091625;23;20014;-88
2022/12/09 11:47:25;;;;;;;18.60;11.10;;;3.10;99.90;;;;;;6091230;23;20024;-87
2022/12/09 11:49:55;;;;;;;14.98;10.00;;;3.20;99.90;;;;;;6090761;23;20404;-88
2022/12/09 11:52:25;;;;;;;20.65;10.27;;;4.00;99.90;;;;;;6089294;23;20093;-88
2022/12/09 11:55:08;;;;;;;19.17;10.32;;;3.20;99.90;;;;;;6090197;23;20057;-87
2022/12/09 11:58:02;;;;;;;15.38;10.20;;;3.30;99.90;;;;;;6090657;23;20483;-88
2022/12/09 12:00:53;;;;;;;18.23;9.93;;;3.30;99.90;;;;;;6041532;23;20006;-88
2022/12/09 12:03:44;;;;;;;15.32;10.45;;;3.40;99.90;;;;;;6095904;23;20057;-88
2022/12/09 12:06:20;;;;;;;18.25;10.30;;;3.40;99.90;;;;;;6102781;23;20061;-88
2022/12/09 12:08:50;;;;;;;17.33;11.32;;;3.40;99.90;;;;;;6102479;23;20007;-89
2022/12/09 12:11:26;;;;;;;16.02;10.43;;;3.50;99.90;;;;;;6099854;23;19998;-88
2022/12/09 12:14:00;;;;;;;19.75;11.32;;;4.30;99.90;;;;;;6072014;23;20006;-89
2022/12/09 12:16:34;;;;;;;18.40;11.20;;;3.60;99.90;;;;;;6091726;23;20006;-88
2022/12/09 12:19:04;;;;;;;19.17;10.55;;;3.60;99.90;;;;;;6063765;23;20022;-88
2022/12/09 12:21:42;;;;;;;21.85;11.43;;;3.80;99.90;;;;;;6039320;23;20007;-90
2022/12/09 12:24:26;;;;;;;20.55;11.70;;;3.70;99.90;;;;;;6063950;23;20038;-90
2022/12/09 12:27:17;;;;;;;22.40;12.20;;;3.80;99.90;;;;;;6062622;23;20006;-89
2022/12/09 12:29:52;;;;;;;18.45;11.07;;;3.80;99.90;;;;;;6062363;23;20011;-88
2022/12/09 12:32:28;;;;;;;20.33;11.25;;;3.90;99.90;;;;;;6063833;23;20142;-87
2022/12/09 12:35:30;;;;;;;23.23;11.25;;;3.90;99.90;;;;;;6064731;23;20026;-88
2022/12/09 12:38:05;;;;;;;19.17;10.57;;;3.90;99.90;;;;;;6063691;23;20010;-88
2022/12/09 12:40:58;;;;;;;17.23;10.95;;;3.90;99.90;;;;;;6064215;23;20009;-89
2022/12/09 12:46:35;;;;;;;16.88;10.10;;;3.90;99.90;;;;;;6063952;23;20408;-87
2022/12/09 12:49:12;;;;;;;16.83;10.18;;;3.90;99.90;;;;;;6063014;23;20095;-87
2022/12/09 12:51:43;;;;;;;16.27;9.80;;;3.90;99.90;;;;;;6063021;23;20417;-88
2022/12/09 12:54:18;;;;;;;16.40;9.52;;;3.90;99.90;;;;;;6064548;23;20155;-87
2022/12/09 12:56:48;;;;;;;20.73;12.05;;;3.90;99.90;;;;;;6062781;23;20003;-89
2022/12/09 12:59:39;;;;;;;21.92;13.13;;;4.10;99.90;;;;;;6062861;23;20455;-89
2022/12/09 13:02:25;;;;;;;25.00;13.73;;;4.10;99.90;;;;;;6064351;23;20014;-89